sensor_id;sensor_type;location;lat;lon;timestamp;P1;P2;P0
64627;PMS5003;68467;50.960;0.314;2024-01-15T00:01:53;16;16;
64627;PMS5003;68467;50.960;0.314;2024-01-15T00:04:21;17;16;
64627;PMS5003;68467;50.960;0.314;2024-01-15T00:06:48;18;16;
64627;PMS5003;68467;50.960;0.314;2024-01-15T00:09:16;21;20;
64627;PMS5003;68467;50.960;0.314;2024-01-15T00:11:43;20;16;
64627;PMS5003;68467;50.960;0.314;2024-01-15T00:14:10;23;21;
64627;PMS5003;68467;50.960;0.314;2024-01-15T00:16:37;15;15;
64627;PMS5003;68467;50.960;0.314;2024-01-15T00:19:06;17;17;
64627;PMS5003;68467;50.960;0.314;2024-01-15T00:21:33;22;19;
64627;PMS5003;68467;50.960;0.314;2024-01-15T00:24:02;17;16;
64627;PMS5003;68467;50.960;0.314;2024-01-15T00:26:30;17;16;
64627;PMS5003;68467;50.960;0.314;2024-01-15T00:28:57;16;16;
64627;PMS5003;68467;50.960;0.314;2024-01-15T00:31:24;19;18;
64627;PMS5003;68467;50.960;0.314;2024-01-15T00:33:52;13;13;
64627;PMS5003;68467;50.960;0.314;2024-01-15T00:36:19;14;14;
64627;PMS5003;68467;50.960;0.314;2024-01-15T00:38:46;14;14;
64627;PMS5003;68467;50.960;0.314;2024-01-15T00:41:14;14;14;
64627;PMS5003;68467;50.960;0.314;2024-01-15T00:43:41;18;16;
64627;PMS5003;68467;50.960;0.314;2024-01-15T00:46:09;13;12;
64627;PMS5003;68467;50.960;0.314;2024-01-15T00:48:35;13;13;
64627;PMS5003;68467;50.960;0.314;2024-01-15T00:51:03;12;12;
64627;PMS5003;68467;50.960;0.314;2024-01-15T00:53:31;13;13;
64627;PMS5003;68467;50.960;0.314;2024-01-15T00:55:58;14;12;
64627;PMS5003;68467;50.960;0.314;2024-01-15T00:58:25;18;14;
64627;PMS5003;68467;50.960;0.314;2024-01-15T01:00:52;10;10;
64627;PMS5003;68467;50.960;0.314;2024-01-15T01:03:19;16;14;
64627;PMS5003;68467;50.960;0.314;2024-01-15T01:05:48;10;10;
64627;PMS5003;68467;50.960;0.314;2024-01-15T01:08:16;11;11;
64627;PMS5003;68467;50.960;0.314;2024-01-15T01:10:43;11;11;
64627;PMS5003;68467;50.960;0.314;2024-01-15T01:13:10;13;12;
64627;PMS5003;68467;50.960;0.314;2024-01-15T01:15:37;14;11;
64627;PMS5003;68467;50.960;0.314;2024-01-15T01:18:05;11;11;
64627;PMS5003;68467;50.960;0.314;2024-01-15T01:20:32;11;10;
64627;PMS5003;68467;50.960;0.314;2024-01-15T01:22:59;14;13;
64627;PMS5003;68467;50.960;0.314;2024-01-15T01:25:26;12;10;
64627;PMS5003;68467;50.960;0.314;2024-01-15T01:27:54;12;11;
64627;PMS5003;68467;50.960;0.314;2024-01-15T01:30:21;13;10;
64627;PMS5003;68467;50.960;0.314;2024-01-15T01:32:48;12;11;
64627;PMS5003;68467;50.960;0.314;2024-01-15T01:35:15;11;11;
64627;PMS5003;68467;50.960;0.314;2024-01-15T01:37:42;11;10;
64627;PMS5003;68467;50.960;0.314;2024-01-15T01:40:10;12;11;
64627;PMS5003;68467;50.960;0.314;2024-01-15T01:42:37;12;11;
64627;PMS5003;68467;50.960;0.314;2024-01-15T01:45:05;10;10;
64627;PMS5003;68467;50.960;0.314;2024-01-15T01:47:32;12;11;
64627;PMS5003;68467;50.960;0.314;2024-01-15T01:49:59;15;11;
64627;PMS5003;68467;50.960;0.314;2024-01-15T01:52:28;11;11;
64627;PMS5003;68467;50.960;0.314;2024-01-15T01:54:57;10;10;
64627;PMS5003;68467;50.960;0.314;2024-01-15T01:57:25;12;11;
64627;PMS5003;68467;50.960;0.314;2024-01-15T01:59:52;9;9;
64627;PMS5003;68467;50.960;0.314;2024-01-15T02:02:20;8;8;
64627;PMS5003;68467;50.960;0.314;2024-01-15T02:04:48;9;8;
64627;PMS5003;68467;50.960;0.314;2024-01-15T02:07:16;12;10;
64627;PMS5003;68467;50.960;0.314;2024-01-15T02:09:43;9;8;
64627;PMS5003;68467;50.960;0.314;2024-01-15T02:12:11;8;8;
64627;PMS5003;68467;50.960;0.314;2024-01-15T02:14:38;8;8;
64627;PMS5003;68467;50.960;0.314;2024-01-15T02:17:06;9;9;
64627;PMS5003;68467;50.960;0.314;2024-01-15T02:19:33;7;7;
64627;PMS5003;68467;50.960;0.314;2024-01-15T02:22:01;10;9;
64627;PMS5003;68467;50.960;0.314;2024-01-15T02:24:28;9;8;
64627;PMS5003;68467;50.960;0.314;2024-01-15T02:26:55;7;7;
64627;PMS5003;68467;50.960;0.314;2024-01-15T02:29:22;7;7;
64627;PMS5003;68467;50.960;0.314;2024-01-15T02:31:50;7;7;
64627;PMS5003;68467;50.960;0.314;2024-01-15T02:34:17;8;8;
64627;PMS5003;68467;50.960;0.314;2024-01-15T02:36:44;8;8;
64627;PMS5003;68467;50.960;0.314;2024-01-15T02:39:12;9;8;
64627;PMS5003;68467;50.960;0.314;2024-01-15T02:41:39;7;7;
64627;PMS5003;68467;50.960;0.314;2024-01-15T02:44:07;7;7;
64627;PMS5003;68467;50.960;0.314;2024-01-15T02:46:34;7;7;
64627;PMS5003;68467;50.960;0.314;2024-01-15T02:49:02;7;7;
64627;PMS5003;68467;50.960;0.314;2024-01-15T02:51:29;6;6;
64627;PMS5003;68467;50.960;0.314;2024-01-15T02:53:56;8;7;
64627;PMS5003;68467;50.960;0.314;2024-01-15T02:56:23;7;7;
64627;PMS5003;68467;50.960;0.314;2024-01-15T02:58:51;6;6;
64627;PMS5003;68467;50.960;0.314;2024-01-15T03:01:18;8;8;
64627;PMS5003;68467;50.960;0.314;2024-01-15T03:03:45;7;7;
64627;PMS5003;68467;50.960;0.314;2024-01-15T03:06:12;6;6;
64627;PMS5003;68467;50.960;0.314;2024-01-15T03:08:40;8;6;
64627;PMS5003;68467;50.960;0.314;2024-01-15T03:11:07;6;6;
64627;PMS5003;68467;50.960;0.314;2024-01-15T03:13:35;7;6;
64627;PMS5003;68467;50.960;0.314;2024-01-15T03:16:03;7;7;
64627;PMS5003;68467;50.960;0.314;2024-01-15T03:18:31;7;7;
64627;PMS5003;68467;50.960;0.314;2024-01-15T03:20:58;6;6;
64627;PMS5003;68467;50.960;0.314;2024-01-15T03:23:25;9;8;
64627;PMS5003;68467;50.960;0.314;2024-01-15T03:25:53;6;6;
64627;PMS5003;68467;50.960;0.314;2024-01-15T03:28:20;9;8;
64627;PMS5003;68467;50.960;0.314;2024-01-15T03:30:47;7;7;
64627;PMS5003;68467;50.960;0.314;2024-01-15T03:33:14;8;7;
64627;PMS5003;68467;50.960;0.314;2024-01-15T03:35:42;7;7;
64627;PMS5003;68467;50.960;0.314;2024-01-15T03:38:09;7;7;
64627;PMS5003;68467;50.960;0.314;2024-01-15T03:40:36;11;8;
64627;PMS5003;68467;50.960;0.314;2024-01-15T03:43:04;8;7;
64627;PMS5003;68467;50.960;0.314;2024-01-15T03:45:31;8;7;
64627;PMS5003;68467;50.960;0.314;2024-01-15T03:47:58;8;8;
64627;PMS5003;68467;50.960;0.314;2024-01-15T03:50:26;11;10;
64627;PMS5003;68467;50.960;0.314;2024-01-15T03:52:53;8;8;
64627;PMS5003;68467;50.960;0.314;2024-01-15T03:55:20;7;7;
64627;PMS5003;68467;50.960;0.314;2024-01-15T03:57:48;6;6;
64627;PMS5003;68467;50.960;0.314;2024-01-15T04:00:15;8;8;
64627;PMS5003;68467;50.960;0.314;2024-01-15T04:02:43;6;6;
64627;PMS5003;68467;50.960;0.314;2024-01-15T04:05:11;7;7;
64627;PMS5003;68467;50.960;0.314;2024-01-15T04:07:38;6;6;
64627;PMS5003;68467;50.960;0.314;2024-01-15T04:10:05;6;6;
64627;PMS5003;68467;50.960;0.314;2024-01-15T04:12:32;6;6;
64627;PMS5003;68467;50.960;0.314;2024-01-15T04:15:00;7;7;
64627;PMS5003;68467;50.960;0.314;2024-01-15T04:17:27;9;7;
64627;PMS5003;68467;50.960;0.314;2024-01-15T04:19:54;7;6;
64627;PMS5003;68467;50.960;0.314;2024-01-15T04:22:22;7;6;
64627;PMS5003;68467;50.960;0.314;2024-01-15T04:24:49;9;7;
64627;PMS5003;68467;50.960;0.314;2024-01-15T04:27:16;5;5;
64627;PMS5003;68467;50.960;0.314;2024-01-15T04:29:44;7;7;
64627;PMS5003;68467;50.960;0.314;2024-01-15T04:32:11;6;5;
64627;PMS5003;68467;50.960;0.314;2024-01-15T04:34:38;6;5;
64627;PMS5003;68467;50.960;0.314;2024-01-15T04:37:05;8;7;
64627;PMS5003;68467;50.960;0.314;2024-01-15T04:39:33;6;6;
64627;PMS5003;68467;50.960;0.314;2024-01-15T04:42:00;6;6;
64627;PMS5003;68467;50.960;0.314;2024-01-15T04:44:28;6;6;
64627;PMS5003;68467;50.960;0.314;2024-01-15T04:46:55;6;6;
64627;PMS5003;68467;50.960;0.314;2024-01-15T04:49:22;8;8;
64627;PMS5003;68467;50.960;0.314;2024-01-15T04:51:49;6;6;
64627;PMS5003;68467;50.960;0.314;2024-01-15T04:54:17;6;6;
64627;PMS5003;68467;50.960;0.314;2024-01-15T04:56:44;6;6;
64627;PMS5003;68467;50.960;0.314;2024-01-15T04:59:11;6;6;
64627;PMS5003;68467;50.960;0.314;2024-01-15T05:01:39;5;5;
64627;PMS5003;68467;50.960;0.314;2024-01-15T05:04:06;4;4;
64627;PMS5003;68467;50.960;0.314;2024-01-15T05:06:34;6;5;
64627;PMS5003;68467;50.960;0.314;2024-01-15T05:09:01;5;4;
64627;PMS5003;68467;50.960;0.314;2024-01-15T05:11:28;4;4;
64627;PMS5003;68467;50.960;0.314;2024-01-15T05:13:56;4;4;
64627;PMS5003;68467;50.960;0.314;2024-01-15T05:16:23;3;3;
64627;PMS5003;68467;50.960;0.314;2024-01-15T05:18:50;5;5;
64627;PMS5003;68467;50.960;0.314;2024-01-15T05:21:18;5;4;
64627;PMS5003;68467;50.960;0.314;2024-01-15T05:23:45;5;5;
64627;PMS5003;68467;50.960;0.314;2024-01-15T05:26:12;5;4;
64627;PMS5003;68467;50.960;0.314;2024-01-15T05:28:40;4;3;
64627;PMS5003;68467;50.960;0.314;2024-01-15T05:31:08;5;4;
64627;PMS5003;68467;50.960;0.314;2024-01-15T05:33:35;5;5;
64627;PMS5003;68467;50.960;0.314;2024-01-15T05:36:03;3;3;
64627;PMS5003;68467;50.960;0.314;2024-01-15T05:38:30;5;5;
64627;PMS5003;68467;50.960;0.314;2024-01-15T05:40:58;5;5;
64627;PMS5003;68467;50.960;0.314;2024-01-15T05:43:25;6;6;
64627;PMS5003;68467;50.960;0.314;2024-01-15T05:45:52;5;5;
64627;PMS5003;68467;50.960;0.314;2024-01-15T05:48:20;6;5;
64627;PMS5003;68467;50.960;0.314;2024-01-15T05:50:47;5;5;
64627;PMS5003;68467;50.960;0.314;2024-01-15T05:53:14;5;5;
64627;PMS5003;68467;50.960;0.314;2024-01-15T05:55:42;5;5;
64627;PMS5003;68467;50.960;0.314;2024-01-15T05:58:09;9;7;
64627;PMS5003;68467;50.960;0.314;2024-01-15T06:00:36;6;5;
64627;PMS5003;68467;50.960;0.314;2024-01-15T06:03:04;4;4;
64627;PMS5003;68467;50.960;0.314;2024-01-15T06:05:32;6;6;
64627;PMS5003;68467;50.960;0.314;2024-01-15T06:07:59;4;4;
64627;PMS5003;68467;50.960;0.314;2024-01-15T06:10:26;4;4;
64627;PMS5003;68467;50.960;0.314;2024-01-15T06:12:54;5;5;
64627;PMS5003;68467;50.960;0.314;2024-01-15T06:15:21;6;5;
64627;PMS5003;68467;50.960;0.314;2024-01-15T06:17:48;6;6;
64627;PMS5003;68467;50.960;0.314;2024-01-15T06:20:16;4;4;
64627;PMS5003;68467;50.960;0.314;2024-01-15T06:22:43;7;7;
64627;PMS5003;68467;50.960;0.314;2024-01-15T06:25:10;7;7;
64627;PMS5003;68467;50.960;0.314;2024-01-15T06:27:38;5;5;
64627;PMS5003;68467;50.960;0.314;2024-01-15T06:30:05;6;6;
64627;PMS5003;68467;50.960;0.314;2024-01-15T06:32:33;5;5;
64627;PMS5003;68467;50.960;0.314;2024-01-15T06:35:00;6;6;
64627;PMS5003;68467;50.960;0.314;2024-01-15T06:37:28;4;4;
64627;PMS5003;68467;50.960;0.314;2024-01-15T06:39:55;4;4;
64627;PMS5003;68467;50.960;0.314;2024-01-15T06:42:22;6;6;
64627;PMS5003;68467;50.960;0.314;2024-01-15T06:44:50;6;6;
64627;PMS5003;68467;50.960;0.314;2024-01-15T06:47:17;5;5;
64627;PMS5003;68467;50.960;0.314;2024-01-15T06:49:44;6;6;
64627;PMS5003;68467;50.960;0.314;2024-01-15T06:52:11;5;5;
64627;PMS5003;68467;50.960;0.314;2024-01-15T06:54:39;5;5;
64627;PMS5003;68467;50.960;0.314;2024-01-15T06:57:06;5;5;
64627;PMS5003;68467;50.960;0.314;2024-01-15T06:59:33;5;5;
64627;PMS5003;68467;50.960;0.314;2024-01-15T07:02:01;5;5;
64627;PMS5003;68467;50.960;0.314;2024-01-15T07:04:28;5;5;
64627;PMS5003;68467;50.960;0.314;2024-01-15T07:06:55;6;6;
64627;PMS5003;68467;50.960;0.314;2024-01-15T07:09:23;4;4;
64627;PMS5003;68467;50.960;0.314;2024-01-15T07:11:50;5;5;
64627;PMS5003;68467;50.960;0.314;2024-01-15T07:14:17;5;5;
64627;PMS5003;68467;50.960;0.314;2024-01-15T07:16:45;5;5;
64627;PMS5003;68467;50.960;0.314;2024-01-15T07:19:12;4;4;
64627;PMS5003;68467;50.960;0.314;2024-01-15T07:21:39;5;4;
64627;PMS5003;68467;50.960;0.314;2024-01-15T07:24:07;4;4;
64627;PMS5003;68467;50.960;0.314;2024-01-15T07:26:34;5;5;
64627;PMS5003;68467;50.960;0.314;2024-01-15T07:29:01;5;4;
64627;PMS5003;68467;50.960;0.314;2024-01-15T07:31:29;7;7;
64627;PMS5003;68467;50.960;0.314;2024-01-15T07:33:56;6;6;
64627;PMS5003;68467;50.960;0.314;2024-01-15T07:36:23;5;4;
64627;PMS5003;68467;50.960;0.314;2024-01-15T07:38:51;5;5;
64627;PMS5003;68467;50.960;0.314;2024-01-15T07:41:18;5;5;
64627;PMS5003;68467;50.960;0.314;2024-01-15T07:43:45;6;6;
64627;PMS5003;68467;50.960;0.314;2024-01-15T07:46:13;5;4;
64627;PMS5003;68467;50.960;0.314;2024-01-15T07:48:41;5;5;
64627;PMS5003;68467;50.960;0.314;2024-01-15T07:51:08;4;4;
64627;PMS5003;68467;50.960;0.314;2024-01-15T07:53:36;6;5;
64627;PMS5003;68467;50.960;0.314;2024-01-15T07:56:03;5;5;
64627;PMS5003;68467;50.960;0.314;2024-01-15T07:58:30;5;5;
64627;PMS5003;68467;50.960;0.314;2024-01-15T08:00:58;4;4;
64627;PMS5003;68467;50.960;0.314;2024-01-15T08:03:25;5;4;
64627;PMS5003;68467;50.960;0.314;2024-01-15T08:05:52;4;4;
64627;PMS5003;68467;50.960;0.314;2024-01-15T08:08:19;3;3;
64627;PMS5003;68467;50.960;0.314;2024-01-15T08:10:46;9;9;
64627;PMS5003;68467;50.960;0.314;2024-01-15T08:13:15;5;4;
64627;PMS5003;68467;50.960;0.314;2024-01-15T08:15:42;7;6;
64627;PMS5003;68467;50.960;0.314;2024-01-15T08:18:09;9;8;
64627;PMS5003;68467;50.960;0.314;2024-01-15T08:20:37;6;6;
64627;PMS5003;68467;50.960;0.314;2024-01-15T08:23:05;6;5;
64627;PMS5003;68467;50.960;0.314;2024-01-15T08:25:33;10;10;
64627;PMS5003;68467;50.960;0.314;2024-01-15T08:28:01;7;7;
64627;PMS5003;68467;50.960;0.314;2024-01-15T08:30:29;9;9;
64627;PMS5003;68467;50.960;0.314;2024-01-15T08:32:56;10;9;
64627;PMS5003;68467;50.960;0.314;2024-01-15T08:35:23;11;9;
64627;PMS5003;68467;50.960;0.314;2024-01-15T08:37:51;6;6;
64627;PMS5003;68467;50.960;0.314;2024-01-15T08:40:19;7;7;
64627;PMS5003;68467;50.960;0.314;2024-01-15T08:42:46;10;10;
64627;PMS5003;68467;50.960;0.314;2024-01-15T08:45:13;9;7;
64627;PMS5003;68467;50.960;0.314;2024-01-15T08:47:41;6;6;
64627;PMS5003;68467;50.960;0.314;2024-01-15T08:50:08;9;7;
64627;PMS5003;68467;50.960;0.314;2024-01-15T08:52:37;13;10;
64627;PMS5003;68467;50.960;0.314;2024-01-15T08:55:04;10;9;
64627;PMS5003;68467;50.960;0.314;2024-01-15T08:57:31;7;7;
64627;PMS5003;68467;50.960;0.314;2024-01-15T08:59:58;5;4;
64627;PMS5003;68467;50.960;0.314;2024-01-15T09:02:25;6;6;
64627;PMS5003;68467;50.960;0.314;2024-01-15T09:04:53;6;6;
64627;PMS5003;68467;50.960;0.314;2024-01-15T09:07:20;6;6;
64627;PMS5003;68467;50.960;0.314;2024-01-15T09:09:47;6;5;
64627;PMS5003;68467;50.960;0.314;2024-01-15T09:12:15;6;5;
64627;PMS5003;68467;50.960;0.314;2024-01-15T09:14:42;10;7;
64627;PMS5003;68467;50.960;0.314;2024-01-15T09:17:09;9;9;
64627;PMS5003;68467;50.960;0.314;2024-01-15T09:19:37;6;5;
64627;PMS5003;68467;50.960;0.314;2024-01-15T09:22:04;7;7;
64627;PMS5003;68467;50.960;0.314;2024-01-15T09:24:32;15;13;
64627;PMS5003;68467;50.960;0.314;2024-01-15T09:26:59;11;11;
64627;PMS5003;68467;50.960;0.314;2024-01-15T09:29:26;6;5;
64627;PMS5003;68467;50.960;0.314;2024-01-15T09:31:54;4;4;
64627;PMS5003;68467;50.960;0.314;2024-01-15T09:34:21;7;6;
64627;PMS5003;68467;50.960;0.314;2024-01-15T09:36:48;6;5;
64627;PMS5003;68467;50.960;0.314;2024-01-15T09:39:16;4;4;
64627;PMS5003;68467;50.960;0.314;2024-01-15T09:41:43;6;5;
64627;PMS5003;68467;50.960;0.314;2024-01-15T09:44:10;5;5;
64627;PMS5003;68467;50.960;0.314;2024-01-15T09:46:39;17;15;
64627;PMS5003;68467;50.960;0.314;2024-01-15T09:49:06;11;9;
64627;PMS5003;68467;50.960;0.314;2024-01-15T09:51:34;11;9;
64627;PMS5003;68467;50.960;0.314;2024-01-15T09:54:02;54;48;
64627;PMS5003;68467;50.960;0.314;2024-01-15T09:56:31;8;8;
64627;PMS5003;68467;50.960;0.314;2024-01-15T09:58:58;4;4;
64627;PMS5003;68467;50.960;0.314;2024-01-15T10:01:27;9;8;
64627;PMS5003;68467;50.960;0.314;2024-01-15T10:03:56;7;6;
64627;PMS5003;68467;50.960;0.314;2024-01-15T10:06:24;4;4;
64627;PMS5003;68467;50.960;0.314;2024-01-15T10:08:54;3;3;
64627;PMS5003;68467;50.960;0.314;2024-01-15T10:11:24;12;12;
64627;PMS5003;68467;50.960;0.314;2024-01-15T10:13:51;5;4;
64627;PMS5003;68467;50.960;0.314;2024-01-15T10:16:18;3;3;
64627;PMS5003;68467;50.960;0.314;2024-01-15T10:18:46;11;11;
64627;PMS5003;68467;50.960;0.314;2024-01-15T10:21:13;9;8;
64627;PMS5003;68467;50.960;0.314;2024-01-15T10:23:41;5;4;
64627;PMS5003;68467;50.960;0.314;2024-01-15T10:26:08;4;4;
64627;PMS5003;68467;50.960;0.314;2024-01-15T10:28:36;3;3;
64627;PMS5003;68467;50.960;0.314;2024-01-15T10:31:03;5;4;
64627;PMS5003;68467;50.960;0.314;2024-01-15T10:33:31;6;4;
64627;PMS5003;68467;50.960;0.314;2024-01-15T10:35:59;3;3;
64627;PMS5003;68467;50.960;0.314;2024-01-15T10:38:27;5;4;
64627;PMS5003;68467;50.960;0.314;2024-01-15T10:40:54;3;3;
64627;PMS5003;68467;50.960;0.314;2024-01-15T10:43:22;4;4;
64627;PMS5003;68467;50.960;0.314;2024-01-15T10:45:51;6;6;
64627;PMS5003;68467;50.960;0.314;2024-01-15T10:48:18;3;3;
64627;PMS5003;68467;50.960;0.314;2024-01-15T10:50:46;4;4;
64627;PMS5003;68467;50.960;0.314;2024-01-15T10:53:15;4;4;
64627;PMS5003;68467;50.960;0.314;2024-01-15T10:55:43;7;7;
64627;PMS5003;68467;50.960;0.314;2024-01-15T10:58:14;7;7;
64627;PMS5003;68467;50.960;0.314;2024-01-15T11:00:42;5;4;
64627;PMS5003;68467;50.960;0.314;2024-01-15T11:03:10;3;3;
64627;PMS5003;68467;50.960;0.314;2024-01-15T11:05:38;5;4;
64627;PMS5003;68467;50.960;0.314;2024-01-15T11:08:06;3;3;
64627;PMS5003;68467;50.960;0.314;2024-01-15T11:10:38;3;3;
64627;PMS5003;68467;50.960;0.314;2024-01-15T11:13:09;3;3;
64627;PMS5003;68467;50.960;0.314;2024-01-15T11:15:57;3;3;
64627;PMS5003;68467;50.960;0.314;2024-01-15T11:18:26;3;3;
64627;PMS5003;68467;50.960;0.314;2024-01-15T11:21:29;3;3;
64627;PMS5003;68467;50.960;0.314;2024-01-15T11:23:58;5;5;
64627;PMS5003;68467;50.960;0.314;2024-01-15T11:26:30;3;3;
64627;PMS5003;68467;50.960;0.314;2024-01-15T11:29:00;4;4;
64627;PMS5003;68467;50.960;0.314;2024-01-15T11:31:28;3;3;
64627;PMS5003;68467;50.960;0.314;2024-01-15T11:33:56;9;8;
64627;PMS5003;68467;50.960;0.314;2024-01-15T11:36:48;5;4;
64627;PMS5003;68467;50.960;0.314;2024-01-15T11:39:43;8;8;
64627;PMS5003;68467;50.960;0.314;2024-01-15T11:42:13;5;4;
64627;PMS5003;68467;50.960;0.314;2024-01-15T11:44:41;5;5;
64627;PMS5003;68467;50.960;0.314;2024-01-15T11:47:10;4;3;
64627;PMS5003;68467;50.960;0.314;2024-01-15T11:50:11;4;4;
64627;PMS5003;68467;50.960;0.314;2024-01-15T11:52:38;5;4;
64627;PMS5003;68467;50.960;0.314;2024-01-15T11:55:10;5;5;
64627;PMS5003;68467;50.960;0.314;2024-01-15T11:57:40;5;5;
64627;PMS5003;68467;50.960;0.314;2024-01-15T12:00:12;5;5;
64627;PMS5003;68467;50.960;0.314;2024-01-15T12:02:41;5;5;
64627;PMS5003;68467;50.960;0.314;2024-01-15T12:05:09;9;8;
64627;PMS5003;68467;50.960;0.314;2024-01-15T12:07:38;3;3;
64627;PMS5003;68467;50.960;0.314;2024-01-15T12:10:08;5;5;
64627;PMS5003;68467;50.960;0.314;2024-01-15T12:12:39;5;5;
64627;PMS5003;68467;50.960;0.314;2024-01-15T12:15:14;6;6;
64627;PMS5003;68467;50.960;0.314;2024-01-15T12:17:42;4;4;
64627;PMS5003;68467;50.960;0.314;2024-01-15T12:20:10;6;5;
64627;PMS5003;68467;50.960;0.314;2024-01-15T12:22:38;9;9;
64627;PMS5003;68467;50.960;0.314;2024-01-15T12:25:06;19;19;
64627;PMS5003;68467;50.960;0.314;2024-01-15T12:27:34;45;44;
64627;PMS5003;68467;50.960;0.314;2024-01-15T12:30:01;13;12;
64627;PMS5003;68467;50.960;0.314;2024-01-15T12:32:29;10;10;
64627;PMS5003;68467;50.960;0.314;2024-01-15T12:34:56;5;5;
64627;PMS5003;68467;50.960;0.314;2024-01-15T12:37:24;5;5;
64627;PMS5003;68467;50.960;0.314;2024-01-15T12:39:51;7;6;
64627;PMS5003;68467;50.960;0.314;2024-01-15T12:42:19;6;6;
64627;PMS5003;68467;50.960;0.314;2024-01-15T12:44:48;6;6;
64627;PMS5003;68467;50.960;0.314;2024-01-15T12:47:15;10;10;
64627;PMS5003;68467;50.960;0.314;2024-01-15T12:49:42;12;12;
64627;PMS5003;68467;50.960;0.314;2024-01-15T12:52:13;7;7;
64627;PMS5003;68467;50.960;0.314;2024-01-15T12:54:40;9;8;
64627;PMS5003;68467;50.960;0.314;2024-01-15T12:57:07;6;6;
64627;PMS5003;68467;50.960;0.314;2024-01-15T12:59:35;13;13;
64627;PMS5003;68467;50.960;0.314;2024-01-15T13:02:02;5;4;
64627;PMS5003;68467;50.960;0.314;2024-01-15T13:04:29;5;5;
64627;PMS5003;68467;50.960;0.314;2024-01-15T13:06:57;5;5;
64627;PMS5003;68467;50.960;0.314;2024-01-15T13:09:24;10;9;
64627;PMS5003;68467;50.960;0.314;2024-01-15T13:11:51;11;9;
64627;PMS5003;68467;50.960;0.314;2024-01-15T13:14:18;10;9;
64627;PMS5003;68467;50.960;0.314;2024-01-15T13:16:46;5;5;
64627;PMS5003;68467;50.960;0.314;2024-01-15T13:19:13;7;7;
64627;PMS5003;68467;50.960;0.314;2024-01-15T13:21:40;5;4;
64627;PMS5003;68467;50.960;0.314;2024-01-15T13:24:08;4;4;
64627;PMS5003;68467;50.960;0.314;2024-01-15T13:26:36;4;4;
64627;PMS5003;68467;50.960;0.314;2024-01-15T13:29:04;3;3;
64627;PMS5003;68467;50.960;0.314;2024-01-15T13:31:31;5;4;
64627;PMS5003;68467;50.960;0.314;2024-01-15T13:33:59;3;3;
64627;PMS5003;68467;50.960;0.314;2024-01-15T13:36:26;5;5;
64627;PMS5003;68467;50.960;0.314;2024-01-15T13:38:54;5;5;
64627;PMS5003;68467;50.960;0.314;2024-01-15T13:41:21;3;3;
64627;PMS5003;68467;50.960;0.314;2024-01-15T13:43:49;9;8;
64627;PMS5003;68467;50.960;0.314;2024-01-15T13:46:17;7;7;
64627;PMS5003;68467;50.960;0.314;2024-01-15T13:48:44;10;9;
64627;PMS5003;68467;50.960;0.314;2024-01-15T13:51:11;7;7;
64627;PMS5003;68467;50.960;0.314;2024-01-15T13:53:40;5;5;
64627;PMS5003;68467;50.960;0.314;2024-01-15T13:56:07;7;6;
64627;PMS5003;68467;50.960;0.314;2024-01-15T13:58:34;5;4;
64627;PMS5003;68467;50.960;0.314;2024-01-15T14:01:01;11;11;
64627;PMS5003;68467;50.960;0.314;2024-01-15T14:03:30;6;6;
64627;PMS5003;68467;50.960;0.314;2024-01-15T14:05:57;6;5;
64627;PMS5003;68467;50.960;0.314;2024-01-15T14:08:25;5;5;
64627;PMS5003;68467;50.960;0.314;2024-01-15T14:10:51;6;6;
64627;PMS5003;68467;50.960;0.314;2024-01-15T14:13:19;4;4;
64627;PMS5003;68467;50.960;0.314;2024-01-15T14:15:46;5;5;
64627;PMS5003;68467;50.960;0.314;2024-01-15T14:18:13;7;7;
64627;PMS5003;68467;50.960;0.314;2024-01-15T14:20:40;6;5;
64627;PMS5003;68467;50.960;0.314;2024-01-15T14:23:07;5;4;
64627;PMS5003;68467;50.960;0.314;2024-01-15T14:25:35;5;4;
64627;PMS5003;68467;50.960;0.314;2024-01-15T14:28:04;6;6;
64627;PMS5003;68467;50.960;0.314;2024-01-15T14:30:32;6;5;
64627;PMS5003;68467;50.960;0.314;2024-01-15T14:32:59;7;7;
64627;PMS5003;68467;50.960;0.314;2024-01-15T14:35:26;4;4;
64627;PMS5003;68467;50.960;0.314;2024-01-15T14:37:53;5;5;
64627;PMS5003;68467;50.960;0.314;2024-01-15T14:40:21;5;5;
64627;PMS5003;68467;50.960;0.314;2024-01-15T14:42:48;6;6;
64627;PMS5003;68467;50.960;0.314;2024-01-15T14:45:15;5;4;
64627;PMS5003;68467;50.960;0.314;2024-01-15T14:47:42;4;4;
64627;PMS5003;68467;50.960;0.314;2024-01-15T14:50:09;8;8;
64627;PMS5003;68467;50.960;0.314;2024-01-15T14:52:37;11;10;
64627;PMS5003;68467;50.960;0.314;2024-01-15T14:55:05;10;10;
64627;PMS5003;68467;50.960;0.314;2024-01-15T14:57:33;22;17;
64627;PMS5003;68467;50.960;0.314;2024-01-15T15:00:00;7;7;
64627;PMS5003;68467;50.960;0.314;2024-01-15T15:02:27;7;7;
64627;PMS5003;68467;50.960;0.314;2024-01-15T15:04:54;19;19;
64627;PMS5003;68467;50.960;0.314;2024-01-15T15:07:22;15;12;
64627;PMS5003;68467;50.960;0.314;2024-01-15T15:09:49;8;8;
64627;PMS5003;68467;50.960;0.314;2024-01-15T15:12:17;5;4;
64627;PMS5003;68467;50.960;0.314;2024-01-15T15:14:44;8;8;
64627;PMS5003;68467;50.960;0.314;2024-01-15T15:17:11;5;5;
64627;PMS5003;68467;50.960;0.314;2024-01-15T15:19:39;10;9;
64627;PMS5003;68467;50.960;0.314;2024-01-15T15:22:06;5;5;
64627;PMS5003;68467;50.960;0.314;2024-01-15T15:24:34;14;13;
64627;PMS5003;68467;50.960;0.314;2024-01-15T15:27:02;12;11;
64627;PMS5003;68467;50.960;0.314;2024-01-15T15:29:31;31;30;
64627;PMS5003;68467;50.960;0.314;2024-01-15T15:31:58;24;24;
64627;PMS5003;68467;50.960;0.314;2024-01-15T15:34:26;25;25;
64627;PMS5003;68467;50.960;0.314;2024-01-15T15:36:53;9;9;
64627;PMS5003;68467;50.960;0.314;2024-01-15T15:39:20;6;6;
64627;PMS5003;68467;50.960;0.314;2024-01-15T15:41:49;7;7;
64627;PMS5003;68467;50.960;0.314;2024-01-15T15:44:16;6;6;
64627;PMS5003;68467;50.960;0.314;2024-01-15T15:46:43;9;8;
64627;PMS5003;68467;50.960;0.314;2024-01-15T15:49:10;9;9;
64627;PMS5003;68467;50.960;0.314;2024-01-15T15:51:38;15;15;
64627;PMS5003;68467;50.960;0.314;2024-01-15T15:54:07;8;8;
64627;PMS5003;68467;50.960;0.314;2024-01-15T15:56:35;31;31;
64627;PMS5003;68467;50.960;0.314;2024-01-15T15:59:02;60;59;
64627;PMS5003;68467;50.960;0.314;2024-01-15T16:01:29;49;48;
64627;PMS5003;68467;50.960;0.314;2024-01-15T16:03:57;53;49;
64627;PMS5003;68467;50.960;0.314;2024-01-15T16:06:26;65;63;
64627;PMS5003;68467;50.960;0.314;2024-01-15T16:08:53;67;67;
64627;PMS5003;68467;50.960;0.314;2024-01-15T16:11:21;50;46;
64627;PMS5003;68467;50.960;0.314;2024-01-15T16:13:48;69;68;
64627;PMS5003;68467;50.960;0.314;2024-01-15T16:16:16;34;34;
64627;PMS5003;68467;50.960;0.314;2024-01-15T16:18:43;17;17;
64627;PMS5003;68467;50.960;0.314;2024-01-15T16:21:11;13;13;
64627;PMS5003;68467;50.960;0.314;2024-01-15T16:23:38;13;13;
64627;PMS5003;68467;50.960;0.314;2024-01-15T16:26:06;32;30;
64627;PMS5003;68467;50.960;0.314;2024-01-15T16:28:33;72;69;
64627;PMS5003;68467;50.960;0.314;2024-01-15T16:31:01;49;49;
64627;PMS5003;68467;50.960;0.314;2024-01-15T16:33:27;50;48;
64627;PMS5003;68467;50.960;0.314;2024-01-15T16:35:55;39;39;
64627;PMS5003;68467;50.960;0.314;2024-01-15T16:38:23;48;46;
64627;PMS5003;68467;50.960;0.314;2024-01-15T16:40:50;30;29;
64627;PMS5003;68467;50.960;0.314;2024-01-15T16:43:17;23;21;
64627;PMS5003;68467;50.960;0.314;2024-01-15T16:45:44;29;27;
64627;PMS5003;68467;50.960;0.314;2024-01-15T16:48:12;58;58;